sensor_id;sensor_type;location;lat;lon;timestamp;P1;durP1;ratioP1;P2;durP2;ratioP2
22644;SDS011;11489;50.834;6.752;2023-02-18T00:00:27;7.97;;;5.85;;
22644;SDS011;11489;50.834;6.752;2023-02-18T00:02:53;7.43;;;5.85;;
22644;SDS011;11489;50.834;6.752;2023-02-18T00:05:20;6.97;;;5.10;;
22644;SDS011;11489;50.834;6.752;2023-02-18T00:07:46;7.85;;;5.50;;
22644;SDS011;11489;50.834;6.752;2023-02-18T00:10:12;7.35;;;5.35;;
22644;SDS011;11489;50.834;6.752;2023-02-18T00:12:41;7.25;;;5.15;;
22644;SDS011;11489;50.834;6.752;2023-02-18T00:15:08;7.90;;;5.72;;
22644;SDS011;11489;50.834;6.752;2023-02-18T00:17:34;8.65;;;5.55;;
22644;SDS011;11489;50.834;6.752;2023-02-18T00:20:00;7.43;;;5.32;;
22644;SDS011;11489;50.834;6.752;2023-02-18T00:22:28;7.65;;;5.30;;
22644;SDS011;11489;50.834;6.752;2023-02-18T00:24:57;6.70;;;5.05;;
22644;SDS011;11489;50.834;6.752;2023-02-18T00:27:22;8.10;;;5.18;;
22644;SDS011;11489;50.834;6.752;2023-02-18T00:29:48;6.38;;;4.80;;
22644;SDS011;11489;50.834;6.752;2023-02-18T00:32:13;7.65;;;4.65;;
22644;SDS011;11489;50.834;6.752;2023-02-18T00:34:39;7.75;;;5.60;;
22644;SDS011;11489;50.834;6.752;2023-02-18T00:37:05;6.82;;;4.85;;
22644;SDS011;11489;50.834;6.752;2023-02-18T00:39:30;5.85;;;4.55;;
22644;SDS011;11489;50.834;6.752;2023-02-18T00:41:56;7.93;;;4.93;;
22644;SDS011;11489;50.834;6.752;2023-02-18T00:44:22;6.68;;;4.72;;
22644;SDS011;11489;50.834;6.752;2023-02-18T00:46:47;7.45;;;5.05;;
22644;SDS011;11489;50.834;6.752;2023-02-18T00:49:14;6.50;;;4.93;;
22644;SDS011;11489;50.834;6.752;2023-02-18T00:51:40;6.47;;;4.78;;
22644;SDS011;11489;50.834;6.752;2023-02-18T00:54:06;7.10;;;4.80;;
22644;SDS011;11489;50.834;6.752;2023-02-18T00:56:32;6.70;;;4.68;;
22644;SDS011;11489;50.834;6.752;2023-02-18T00:58:58;6.53;;;4.90;;
22644;SDS011;11489;50.834;6.752;2023-02-18T01:01:24;6.70;;;4.88;;
22644;SDS011;11489;50.834;6.752;2023-02-18T01:03:50;6.90;;;4.68;;
22644;SDS011;11489;50.834;6.752;2023-02-18T01:06:16;5.32;;;4.18;;
22644;SDS011;11489;50.834;6.752;2023-02-18T01:08:42;6.50;;;4.47;;
22644;SDS011;11489;50.834;6.752;2023-02-18T01:11:08;6.45;;;4.35;;
22644;SDS011;11489;50.834;6.752;2023-02-18T01:13:35;5.82;;;4.60;;
22644;SDS011;11489;50.834;6.752;2023-02-18T01:16:01;6.68;;;4.82;;
22644;SDS011;11489;50.834;6.752;2023-02-18T01:18:27;6.28;;;4.38;;
22644;SDS011;11489;50.834;6.752;2023-02-18T01:20:53;6.15;;;4.60;;
22644;SDS011;11489;50.834;6.752;2023-02-18T01:23:18;6.70;;;4.47;;
22644;SDS011;11489;50.834;6.752;2023-02-18T01:25:44;5.95;;;4.57;;
22644;SDS011;11489;50.834;6.752;2023-02-18T01:28:11;5.70;;;4.53;;
22644;SDS011;11489;50.834;6.752;2023-02-18T01:30:38;5.85;;;4.20;;
22644;SDS011;11489;50.834;6.752;2023-02-18T01:33:04;6.28;;;4.35;;
22644;SDS011;11489;50.834;6.752;2023-02-18T01:35:30;6.13;;;4.35;;
22644;SDS011;11489;50.834;6.752;2023-02-18T01:37:56;6.47;;;4.53;;
22644;SDS011;11489;50.834;6.752;2023-02-18T01:40:23;5.65;;;4.10;;
22644;SDS011;11489;50.834;6.752;2023-02-18T01:42:51;6.00;;;4.47;;
22644;SDS011;11489;50.834;6.752;2023-02-18T01:47:58;8.50;;;3.90;;
22644;SDS011;11489;50.834;6.752;2023-02-18T01:50:31;5.35;;;4.07;;
22644;SDS011;11489;50.834;6.752;2023-02-18T01:52:59;8.43;;;4.10;;
22644;SDS011;11489;50.834;6.752;2023-02-18T01:55:26;6.32;;;4.05;;
22644;SDS011;11489;50.834;6.752;2023-02-18T01:57:51;5.22;;;4.22;;
22644;SDS011;11489;50.834;6.752;2023-02-18T02:00:18;6.57;;;3.80;;
22644;SDS011;11489;50.834;6.752;2023-02-18T02:02:46;6.15;;;4.10;;
22644;SDS011;11489;50.834;6.752;2023-02-18T02:05:13;5.55;;;3.88;;
22644;SDS011;11489;50.834;6.752;2023-02-18T02:07:40;5.53;;;3.88;;
22644;SDS011;11489;50.834;6.752;2023-02-18T02:10:07;5.25;;;3.75;;
22644;SDS011;11489;50.834;6.752;2023-02-18T02:17:47;4.43;;;3.33;;
22644;SDS011;11489;50.834;6.752;2023-02-18T02:31:14;4.57;;;3.20;;
22644;SDS011;11489;50.834;6.752;2023-02-18T02:33:58;3.17;;;2.35;;
22644;SDS011;11489;50.834;6.752;2023-02-18T02:36:30;2.97;;;2.00;;
22644;SDS011;11489;50.834;6.752;2023-02-18T02:39:07;2.55;;;1.85;;
22644;SDS011;11489;50.834;6.752;2023-02-18T02:41:44;2.47;;;1.90;;
22644;SDS011;11489;50.834;6.752;2023-02-18T02:44:26;2.15;;;1.60;;
22644;SDS011;11489;50.834;6.752;2023-02-18T02:47:07;2.08;;;1.50;;
22644;SDS011;11489;50.834;6.752;2023-02-18T02:49:39;1.52;;;1.25;;
22644;SDS011;11489;50.834;6.752;2023-02-18T02:52:27;1.40;;;1.27;;
22644;SDS011;11489;50.834;6.752;2023-02-18T02:54:57;1.83;;;1.10;;
22644;SDS011;11489;50.834;6.752;2023-02-18T02:59:51;1.40;;;1.30;;
22644;SDS011;11489;50.834;6.752;2023-02-18T03:07:54;1.25;;;1.00;;
22644;SDS011;11489;50.834;6.752;2023-02-18T03:15:54;1.20;;;0.90;;
22644;SDS011;11489;50.834;6.752;2023-02-18T03:23:41;1.15;;;0.60;;
22644;SDS011;11489;50.834;6.752;2023-02-18T03:26:13;1.00;;;0.80;;
22644;SDS011;11489;50.834;6.752;2023-02-18T03:28:41;0.60;;;0.60;;
22644;SDS011;11489;50.834;6.752;2023-02-18T03:31:09;0.80;;;0.60;;
22644;SDS011;11489;50.834;6.752;2023-02-18T03:33:42;0.40;;;0.40;;
22644;SDS011;11489;50.834;6.752;2023-02-18T03:36:11;0.50;;;0.50;;
22644;SDS011;11489;50.834;6.752;2023-02-18T03:38:39;2.58;;;0.40;;
22644;SDS011;11489;50.834;6.752;2023-02-18T03:41:10;0.45;;;0.40;;
22644;SDS011;11489;50.834;6.752;2023-02-18T03:43:36;0.30;;;0.30;;
22644;SDS011;11489;50.834;6.752;2023-02-18T03:46:04;0.20;;;0.20;;
22644;SDS011;11489;50.834;6.752;2023-02-18T03:48:29;0.30;;;0.30;;
22644;SDS011;11489;50.834;6.752;2023-02-18T03:50:55;0.30;;;0.30;;
22644;SDS011;11489;50.834;6.752;2023-02-18T03:53:21;0.35;;;0.30;;
22644;SDS011;11489;50.834;6.752;2023-02-18T03:55:47;0.20;;;0.20;;
22644;SDS011;11489;50.834;6.752;2023-02-18T03:58:12;0.50;;;0.30;;
22644;SDS011;11489;50.834;6.752;2023-02-18T04:00:38;0.22;;;0.22;;
22644;SDS011;11489;50.834;6.752;2023-02-18T04:03:03;0.38;;;0.20;;
22644;SDS011;11489;50.834;6.752;2023-02-18T04:05:29;0.47;;;0.22;;
22644;SDS011;11489;50.834;6.752;2023-02-18T04:07:55;0.20;;;0.20;;
22644;SDS011;11489;50.834;6.752;2023-02-18T04:10:20;0.17;;;0.15;;
22644;SDS011;11489;50.834;6.752;2023-02-18T04:12:46;0.13;;;0.13;;
22644;SDS011;11489;50.834;6.752;2023-02-18T04:15:12;0.10;;;0.10;;
22644;SDS011;11489;50.834;6.752;2023-02-18T04:17:38;0.20;;;0.13;;
22644;SDS011;11489;50.834;6.752;2023-02-18T04:20:04;0.40;;;0.20;;
22644;SDS011;11489;50.834;6.752;2023-02-18T04:22:30;0.40;;;0.10;;
22644;SDS011;11489;50.834;6.752;2023-02-18T04:24:56;1.55;;;0.10;;
22644;SDS011;11489;50.834;6.752;2023-02-18T04:27:22;0.95;;;0.20;;
22644;SDS011;11489;50.834;6.752;2023-02-18T04:29:47;0.47;;;0.20;;
22644;SDS011;11489;50.834;6.752;2023-02-18T04:32:13;0.50;;;0.10;;
22644;SDS011;11489;50.834;6.752;2023-02-18T04:34:39;0.13;;;0.13;;
22644;SDS011;11489;50.834;6.752;2023-02-18T04:37:04;0.20;;;0.20;;
22644;SDS011;11489;50.834;6.752;2023-02-18T04:39:30;0.15;;;0.15;;
22644;SDS011;11489;50.834;6.752;2023-02-18T04:41:55;0.10;;;0.10;;
22644;SDS011;11489;50.834;6.752;2023-02-18T04:44:21;0.35;;;0.20;;
22644;SDS011;11489;50.834;6.752;2023-02-18T04:46:47;0.20;;;0.20;;
22644;SDS011;11489;50.834;6.752;2023-02-18T04:49:12;0.20;;;0.20;;
22644;SDS011;11489;50.834;6.752;2023-02-18T04:51:38;0.20;;;0.20;;
22644;SDS011;11489;50.834;6.752;2023-02-18T04:54:04;0.17;;;0.17;;
22644;SDS011;11489;50.834;6.752;2023-02-18T04:56:29;0.30;;;0.30;;
22644;SDS011;11489;50.834;6.752;2023-02-18T04:58:55;0.28;;;0.20;;
22644;SDS011;11489;50.834;6.752;2023-02-18T05:01:20;0.20;;;0.20;;
22644;SDS011;11489;50.834;6.752;2023-02-18T05:03:46;0.38;;;0.22;;
22644;SDS011;11489;50.834;6.752;2023-02-18T05:06:12;0.20;;;0.20;;
22644;SDS011;11489;50.834;6.752;2023-02-18T05:08:37;0.10;;;0.10;;
22644;SDS011;11489;50.834;6.752;2023-02-18T05:11:04;0.20;;;0.20;;
22644;SDS011;11489;50.834;6.752;2023-02-18T05:13:31;0.30;;;0.30;;
22644;SDS011;11489;50.834;6.752;2023-02-18T05:15:56;0.45;;;0.20;;
22644;SDS011;11489;50.834;6.752;2023-02-18T05:18:22;0.73;;;0.20;;
22644;SDS011;11489;50.834;6.752;2023-02-18T05:20:48;0.40;;;0.30;;
22644;SDS011;11489;50.834;6.752;2023-02-18T05:23:13;0.20;;;0.20;;
22644;SDS011;11489;50.834;6.752;2023-02-18T05:25:39;0.20;;;0.20;;
22644;SDS011;11489;50.834;6.752;2023-02-18T05:28:04;0.20;;;0.20;;
22644;SDS011;11489;50.834;6.752;2023-02-18T05:30:30;0.30;;;0.20;;
22644;SDS011;11489;50.834;6.752;2023-02-18T05:32:56;0.10;;;0.10;;
22644;SDS011;11489;50.834;6.752;2023-02-18T05:35:22;0.20;;;0.20;;
22644;SDS011;11489;50.834;6.752;2023-02-18T05:37:47;0.30;;;0.30;;
22644;SDS011;11489;50.834;6.752;2023-02-18T05:40:13;0.30;;;0.20;;
22644;SDS011;11489;50.834;6.752;2023-02-18T05:42:38;1.65;;;0.20;;
22644;SDS011;11489;50.834;6.752;2023-02-18T05:45:05;0.30;;;0.30;;
22644;SDS011;11489;50.834;6.752;2023-02-18T05:47:31;0.22;;;0.22;;
22644;SDS011;11489;50.834;6.752;2023-02-18T05:49:56;0.55;;;0.20;;
22644;SDS011;11489;50.834;6.752;2023-02-18T05:52:22;0.30;;;0.28;;
22644;SDS011;11489;50.834;6.752;2023-02-18T05:54:48;0.30;;;0.30;;
22644;SDS011;11489;50.834;6.752;2023-02-18T05:57:13;1.40;;;0.30;;
22644;SDS011;11489;50.834;6.752;2023-02-18T05:59:39;0.22;;;0.22;;
22644;SDS011;11489;50.834;6.752;2023-02-18T06:02:05;0.40;;;0.40;;
22644;SDS011;11489;50.834;6.752;2023-02-18T06:04:31;0.30;;;0.30;;
22644;SDS011;11489;50.834;6.752;2023-02-18T06:06:57;0.40;;;0.30;;
22644;SDS011;11489;50.834;6.752;2023-02-18T06:09:22;0.30;;;0.30;;
22644;SDS011;11489;50.834;6.752;2023-02-18T06:11:48;1.65;;;0.43;;
22644;SDS011;11489;50.834;6.752;2023-02-18T06:14:14;0.20;;;0.20;;
22644;SDS011;11489;50.834;6.752;2023-02-18T06:16:40;1.17;;;0.30;;
22644;SDS011;11489;50.834;6.752;2023-02-18T06:19:06;0.10;;;0.10;;
22644;SDS011;11489;50.834;6.752;2023-02-18T06:21:31;0.20;;;0.20;;
22644;SDS011;11489;50.834;6.752;2023-02-18T06:23:57;0.25;;;0.20;;
22644;SDS011;11489;50.834;6.752;2023-02-18T06:26:23;0.20;;;0.20;;
22644;SDS011;11489;50.834;6.752;2023-02-18T06:28:49;0.20;;;0.20;;
22644;SDS011;11489;50.834;6.752;2023-02-18T06:31:14;0.20;;;0.20;;
22644;SDS011;11489;50.834;6.752;2023-02-18T06:33:40;0.10;;;0.10;;
22644;SDS011;11489;50.834;6.752;2023-02-18T06:36:07;0.10;;;0.10;;
22644;SDS011;11489;50.834;6.752;2023-02-18T06:38:38;0.10;;;0.10;;
22644;SDS011;11489;50.834;6.752;2023-02-18T06:41:06;0.10;;;0.10;;
22644;SDS011;11489;50.834;6.752;2023-02-18T06:43:32;0.20;;;0.20;;
22644;SDS011;11489;50.834;6.752;2023-02-18T06:45:58;0.10;;;0.10;;
22644;SDS011;11489;50.834;6.752;2023-02-18T06:48:23;0.20;;;0.20;;
22644;SDS011;11489;50.834;6.752;2023-02-18T06:50:49;0.38;;;0.10;;
22644;SDS011;11489;50.834;6.752;2023-02-18T06:53:15;0.10;;;0.10;;
22644;SDS011;11489;50.834;6.752;2023-02-18T06:55:41;0.10;;;0.10;;
22644;SDS011;11489;50.834;6.752;2023-02-18T06:58:08;0.20;;;0.20;;
22644;SDS011;11489;50.834;6.752;2023-02-18T07:00:34;0.20;;;0.20;;
22644;SDS011;11489;50.834;6.752;2023-02-18T07:03:00;0.28;;;0.20;;
22644;SDS011;11489;50.834;6.752;2023-02-18T07:05:26;0.20;;;0.20;;
22644;SDS011;11489;50.834;6.752;2023-02-18T07:07:52;0.20;;;0.17;;
22644;SDS011;11489;50.834;6.752;2023-02-18T07:10:18;2.10;;;0.20;;
22644;SDS011;11489;50.834;6.752;2023-02-18T07:12:43;0.30;;;0.20;;
22644;SDS011;11489;50.834;6.752;2023-02-18T07:15:09;0.15;;;0.15;;
22644;SDS011;11489;50.834;6.752;2023-02-18T07:17:35;0.30;;;0.30;;
22644;SDS011;11489;50.834;6.752;2023-02-18T07:20:01;0.28;;;0.28;;
22644;SDS011;11489;50.834;6.752;2023-02-18T07:22:28;0.38;;;0.30;;
22644;SDS011;11489;50.834;6.752;2023-02-18T07:24:54;0.30;;;0.30;;
22644;SDS011;11489;50.834;6.752;2023-02-18T07:27:20;0.63;;;0.30;;
22644;SDS011;11489;50.834;6.752;2023-02-18T07:29:46;0.30;;;0.30;;
22644;SDS011;11489;50.834;6.752;2023-02-18T07:32:12;0.50;;;0.40;;
22644;SDS011;11489;50.834;6.752;2023-02-18T07:34:39;0.63;;;0.28;;
22644;SDS011;11489;50.834;6.752;2023-02-18T07:37:04;0.65;;;0.30;;
22644;SDS011;11489;50.834;6.752;2023-02-18T07:39:33;0.22;;;0.22;;
22644;SDS011;11489;50.834;6.752;2023-02-18T07:42:01;0.30;;;0.30;;
22644;SDS011;11489;50.834;6.752;2023-02-18T07:44:27;0.30;;;0.30;;
22644;SDS011;11489;50.834;6.752;2023-02-18T07:46:52;0.68;;;0.52;;
22644;SDS011;11489;50.834;6.752;2023-02-18T07:49:18;0.50;;;0.40;;
22644;SDS011;11489;50.834;6.752;2023-02-18T07:51:46;0.43;;;0.40;;
22644;SDS011;11489;50.834;6.752;2023-02-18T07:54:12;0.30;;;0.30;;
22644;SDS011;11489;50.834;6.752;2023-02-18T07:56:38;0.47;;;0.40;;
22644;SDS011;11489;50.834;6.752;2023-02-18T07:59:04;0.60;;;0.40;;
22644;SDS011;11489;50.834;6.752;2023-02-18T08:01:30;1.67;;;0.57;;
22644;SDS011;11489;50.834;6.752;2023-02-18T08:03:56;1.02;;;0.40;;
22644;SDS011;11489;50.834;6.752;2023-02-18T08:06:27;1.30;;;0.50;;
22644;SDS011;11489;50.834;6.752;2023-02-18T08:08:57;1.48;;;0.57;;
22644;SDS011;11489;50.834;6.752;2023-02-18T08:11:22;1.80;;;0.75;;
22644;SDS011;11489;50.834;6.752;2023-02-18T08:13:48;2.00;;;1.10;;
22644;SDS011;11489;50.834;6.752;2023-02-18T08:16:14;1.52;;;0.90;;
22644;SDS011;11489;50.834;6.752;2023-02-18T08:18:41;5.50;;;1.65;;
22644;SDS011;11489;50.834;6.752;2023-02-18T08:21:07;3.85;;;1.50;;
22644;SDS011;11489;50.834;6.752;2023-02-18T08:23:33;3.85;;;1.83;;
22644;SDS011;11489;50.834;6.752;2023-02-18T08:25:59;8.35;;;2.53;;
22644;SDS011;11489;50.834;6.752;2023-02-18T08:28:30;5.05;;;1.73;;
22644;SDS011;11489;50.834;6.752;2023-02-18T08:30:59;4.13;;;1.58;;
22644;SDS011;11489;50.834;6.752;2023-02-18T08:33:25;6.32;;;2.05;;
22644;SDS011;11489;50.834;6.752;2023-02-18T08:35:51;5.85;;;1.73;;
22644;SDS011;11489;50.834;6.752;2023-02-18T08:38:20;5.72;;;1.85;;
22644;SDS011;11489;50.834;6.752;2023-02-18T08:40:47;6.25;;;1.80;;
22644;SDS011;11489;50.834;6.752;2023-02-18T08:43:13;5.85;;;1.88;;
22644;SDS011;11489;50.834;6.752;2023-02-18T08:45:40;2.95;;;1.63;;
22644;SDS011;11489;50.834;6.752;2023-02-18T08:48:13;5.35;;;1.92;;
22644;SDS011;11489;50.834;6.752;2023-02-18T08:50:40;5.70;;;1.90;;
22644;SDS011;11489;50.834;6.752;2023-02-18T08:53:11;2.90;;;1.55;;
22644;SDS011;11489;50.834;6.752;2023-02-18T08:55:39;2.63;;;1.55;;
22644;SDS011;11489;50.834;6.752;2023-02-18T08:58:05;5.03;;;1.80;;
22644;SDS011;11489;50.834;6.752;2023-02-18T09:00:31;4.32;;;1.50;;
22644;SDS011;11489;50.834;6.752;2023-02-18T09:02:57;3.28;;;1.73;;
22644;SDS011;11489;50.834;6.752;2023-02-18T09:05:23;7.40;;;1.95;;
22644;SDS011;11489;50.834;6.752;2023-02-18T09:07:56;6.35;;;1.60;;
22644;SDS011;11489;50.834;6.752;2023-02-18T09:10:22;5.32;;;1.60;;
22644;SDS011;11489;50.834;6.752;2023-02-18T09:12:48;5.65;;;1.70;;
22644;SDS011;11489;50.834;6.752;2023-02-18T09:15:16;6.30;;;1.40;;
22644;SDS011;11489;50.834;6.752;2023-02-18T09:17:42;5.00;;;1.60;;
22644;SDS011;11489;50.834;6.752;2023-02-18T09:20:08;7.40;;;1.80;;
22644;SDS011;11489;50.834;6.752;2023-02-18T09:22:34;5.80;;;1.73;;
22644;SDS011;11489;50.834;6.752;2023-02-18T09:25:00;4.20;;;1.60;;
22644;SDS011;11489;50.834;6.752;2023-02-18T09:27:25;5.05;;;1.60;;
22644;SDS011;11489;50.834;6.752;2023-02-18T09:29:51;4.35;;;1.70;;
22644;SDS011;11489;50.834;6.752;2023-02-18T09:32:16;4.43;;;1.50;;
22644;SDS011;11489;50.834;6.752;2023-02-18T09:34:43;3.88;;;1.42;;
22644;SDS011;11489;50.834;6.752;2023-02-18T09:37:09;5.75;;;1.48;;
22644;SDS011;11489;50.834;6.752;2023-02-18T09:39:35;3.92;;;1.60;;
22644;SDS011;11489;50.834;6.752;2023-02-18T09:42:02;3.47;;;1.60;;
22644;SDS011;11489;50.834;6.752;2023-02-18T09:44:40;5.97;;;1.70;;
22644;SDS011;11489;50.834;6.752;2023-02-18T09:47:14;5.78;;;1.98;;
22644;SDS011;11489;50.834;6.752;2023-02-18T09:49:53;5.68;;;1.67;;
22644;SDS011;11489;50.834;6.752;2023-02-18T09:52:27;3.95;;;1.90;;
22644;SDS011;11489;50.834;6.752;2023-02-18T09:54:56;4.32;;;1.45;;
22644;SDS011;11489;50.834;6.752;2023-02-18T09:59:52;6.40;;;1.77;;
22644;SDS011;11489;50.834;6.752;2023-02-18T10:02:24;4.20;;;1.80;;
22644;SDS011;11489;50.834;6.752;2023-02-18T10:04:50;4.68;;;1.60;;
22644;SDS011;11489;50.834;6.752;2023-02-18T10:07:31;3.65;;;1.50;;
22644;SDS011;11489;50.834;6.752;2023-02-18T10:10:00;4.43;;;1.50;;
22644;SDS011;11489;50.834;6.752;2023-02-18T10:12:32;4.72;;;1.70;;
22644;SDS011;11489;50.834;6.752;2023-02-18T10:14:59;3.03;;;1.88;;
22644;SDS011;11489;50.834;6.752;2023-02-18T10:17:27;5.90;;;1.80;;
22644;SDS011;11489;50.834;6.752;2023-02-18T10:19:56;5.75;;;1.90;;
22644;SDS011;11489;50.834;6.752;2023-02-18T10:22:23;5.55;;;1.77;;
22644;SDS011;11489;50.834;6.752;2023-02-18T10:24:57;3.95;;;1.70;;
22644;SDS011;11489;50.834;6.752;2023-02-18T10:29:55;5.38;;;1.70;;
22644;SDS011;11489;50.834;6.752;2023-02-18T10:32:44;4.68;;;1.77;;
22644;SDS011;11489;50.834;6.752;2023-02-18T10:37:50;4.50;;;1.85;;
22644;SDS011;11489;50.834;6.752;2023-02-18T10:46:48;7.10;;;1.85;;
22644;SDS011;11489;50.834;6.752;2023-02-18T10:51:56;4.20;;;1.30;;
22644;SDS011;11489;50.834;6.752;2023-02-18T10:54:26;3.88;;;1.60;;
22644;SDS011;11489;50.834;6.752;2023-02-18T10:57:14;1.95;;;1.20;;
22644;SDS011;11489;50.834;6.752;2023-02-18T10:59:53;2.50;;;1.10;;
22644;SDS011;11489;50.834;6.752;2023-02-18T11:02:22;2.20;;;1.38;;
22644;SDS011;11489;50.834;6.752;2023-02-18T11:04:50;2.22;;;1.25;;
22644;SDS011;11489;50.834;6.752;2023-02-18T11:09:54;2.35;;;1.00;;
22644;SDS011;11489;50.834;6.752;2023-02-18T11:12:29;1.95;;;0.80;;
22644;SDS011;11489;50.834;6.752;2023-02-18T11:17:39;2.83;;;0.98;;
22644;SDS011;11489;50.834;6.752;2023-02-18T11:20:20;2.47;;;0.80;;
22644;SDS011;11489;50.834;6.752;2023-02-18T11:22:49;2.15;;;0.60;;
22644;SDS011;11489;50.834;6.752;2023-02-18T11:27:51;2.15;;;0.60;;
22644;SDS011;11489;50.834;6.752;2023-02-18T11:30:23;2.10;;;0.70;;
22644;SDS011;11489;50.834;6.752;2023-02-18T11:33:08;0.70;;;0.52;;
22644;SDS011;11489;50.834;6.752;2023-02-18T11:35:49;2.53;;;0.80;;
22644;SDS011;11489;50.834;6.752;2023-02-18T11:38:33;0.90;;;0.60;;
22644;SDS011;11489;50.834;6.752;2023-02-18T11:41:05;0.57;;;0.40;;
22644;SDS011;11489;50.834;6.752;2023-02-18T11:43:40;0.70;;;0.50;;
22644;SDS011;11489;50.834;6.752;2023-02-18T11:48:37;1.10;;;0.77;;
22644;SDS011;11489;50.834;6.752;2023-02-18T11:51:03;1.02;;;0.60;;
22644;SDS011;11489;50.834;6.752;2023-02-18T11:53:33;3.00;;;0.60;;
22644;SDS011;11489;50.834;6.752;2023-02-18T11:56:08;0.88;;;0.60;;
22644;SDS011;11489;50.834;6.752;2023-02-18T11:58:45;0.88;;;0.70;;
22644;SDS011;11489;50.834;6.752;2023-02-18T12:01:13;1.38;;;0.70;;
22644;SDS011;11489;50.834;6.752;2023-02-18T12:03:47;1.63;;;0.75;;
22644;SDS011;11489;50.834;6.752;2023-02-18T12:06:51;1.88;;;0.90;;
22644;SDS011;11489;50.834;6.752;2023-02-18T12:09:28;1.13;;;0.60;;
22644;SDS011;11489;50.834;6.752;2023-02-18T12:11:57;0.85;;;0.70;;
22644;SDS011;11489;50.834;6.752;2023-02-18T12:14:25;1.52;;;0.70;;
22644;SDS011;11489;50.834;6.752;2023-02-18T12:19:29;1.25;;;0.63;;
22644;SDS011;11489;50.834;6.752;2023-02-18T12:25:08;0.93;;;0.70;;
22644;SDS011;11489;50.834;6.752;2023-02-18T12:27:58;2.15;;;0.80;;
22644;SDS011;11489;50.834;6.752;2023-02-18T12:41:40;1.88;;;1.10;;
22644;SDS011;11489;50.834;6.752;2023-02-18T13:06:12;2.55;;;0.90;;
22644;SDS011;11489;50.834;6.752;2023-02-18T13:09:02;1.95;;;1.00;;
22644;SDS011;11489;50.834;6.752;2023-02-18T13:12:04;2.28;;;0.90;;
22644;SDS011;11489;50.834;6.752;2023-02-18T13:14:46;1.75;;;0.90;;
22644;SDS011;11489;50.834;6.752;2023-02-18T13:17:21;1.10;;;0.77;;
22644;SDS011;11489;50.834;6.752;2023-02-18T13:19:51;1.95;;;0.90;;
22644;SDS011;11489;50.834;6.752;2023-02-18T13:22:24;1.88;;;0.82;;
22644;SDS011;11489;50.834;6.752;2023-02-18T13:24:53;1.73;;;0.95;;
22644;SDS011;11489;50.834;6.752;2023-02-18T13:35:56;1.05;;;0.93;;
22644;SDS011;11489;50.834;6.752;2023-02-18T13:41:26;1.38;;;0.90;;
22644;SDS011;11489;50.834;6.752;2023-02-18T13:43:52;1.63;;;0.65;;
22644;SDS011;11489;50.834;6.752;2023-02-18T13:46:19;1.25;;;0.77;;
22644;SDS011;11489;50.834;6.752;2023-02-18T13:51:26;1.38;;;0.70;;
22644;SDS011;11489;50.834;6.752;2023-02-18T13:53:58;2.45;;;0.80;;
22644;SDS011;11489;50.834;6.752;2023-02-18T13:57:01;1.30;;;0.75;;
22644;SDS011;11489;50.834;6.752;2023-02-18T13:59:32;1.13;;;0.80;;
22644;SDS011;11489;50.834;6.752;2023-02-18T14:33:48;1.13;;;0.60;;
22644;SDS011;11489;50.834;6.752;2023-02-18T14:36:29;0.68;;;0.65;;
22644;SDS011;11489;50.834;6.752;2023-02-18T14:39:07;0.85;;;0.75;;
22644;SDS011;11489;50.834;6.752;2023-02-18T14:50:52;0.90;;;0.63;;
22644;SDS011;11489;50.834;6.752;2023-02-18T14:53:21;1.73;;;0.77;;
22644;SDS011;11489;50.834;6.752;2023-02-18T14:55:50;0.60;;;0.55;;
22644;SDS011;11489;50.834;6.752;2023-02-18T14:58:34;1.10;;;0.90;;
22644;SDS011;11489;50.834;6.752;2023-02-18T15:01:21;1.17;;;0.65;;
22644;SDS011;11489;50.834;6.752;2023-02-18T15:03:52;1.98;;;0.77;;
22644;SDS011;11489;50.834;6.752;2023-02-18T15:08:51;1.88;;;0.80;;
22644;SDS011;11489;50.834;6.752;2023-02-18T15:11:16;1.30;;;0.95;;
22644;SDS011;11489;50.834;6.752;2023-02-18T15:13:45;1.30;;;0.70;;
22644;SDS011;11489;50.834;6.752;2023-02-18T15:16:12;0.85;;;0.77;;
22644;SDS011;11489;50.834;6.752;2023-02-18T15:18:43;0.70;;;0.70;;
22644;SDS011;11489;50.834;6.752;2023-02-18T15:23:46;0.80;;;0.73;;
22644;SDS011;11489;50.834;6.752;2023-02-18T15:26:12;1.20;;;0.70;;
22644;SDS011;11489;50.834;6.752;2023-02-18T15:28:41;1.35;;;0.85;;
22644;SDS011;11489;50.834;6.752;2023-02-18T15:31:18;1.17;;;0.80;;
22644;SDS011;11489;50.834;6.752;2023-02-18T15:33:53;1.85;;;0.85;;
22644;SDS011;11489;50.834;6.752;2023-02-18T15:36:19;0.70;;;0.70;;
22644;SDS011;11489;50.834;6.752;2023-02-18T15:38:44;1.63;;;1.00;;
22644;SDS011;11489;50.834;6.752;2023-02-18T15:41:11;2.22;;;0.98;;
22644;SDS011;11489;50.834;6.752;2023-02-18T15:43:39;1.05;;;0.95;;
22644;SDS011;11489;50.834;6.752;2023-02-18T15:46:20;1.05;;;0.82;;
22644;SDS011;11489;50.834;6.752;2023-02-18T15:48:48;2.42;;;1.00;;
22644;SDS011;11489;50.834;6.752;2023-02-18T15:51:26;1.25;;;0.90;;
22644;SDS011;11489;50.834;6.752;2023-02-18T15:53:55;1.02;;;0.90;;
22644;SDS011;11489;50.834;6.752;2023-02-18T15:56:47;0.88;;;0.80;;
22644;SDS011;11489;50.834;6.752;2023-02-18T15:59:18;2.95;;;0.88;;
22644;SDS011;11489;50.834;6.752;2023-02-18T16:01:56;1.15;;;0.77;;
22644;SDS011;11489;50.834;6.752;2023-02-18T16:04:33;1.13;;;1.00;;
22644;SDS011;11489;50.834;6.752;2023-02-18T16:07:02;1.38;;;0.80;;
22644;SDS011;11489;50.834;6.752;2023-02-18T16:09:41;1.33;;;0.95;;
22644;SDS011;11489;50.834;6.752;2023-02-18T16:12:12;1.27;;;0.90;;
22644;SDS011;11489;50.834;6.752;2023-02-18T16:14:56;1.42;;;1.08;;
22644;SDS011;11489;50.834;6.752;2023-02-18T16:17:23;1.20;;;0.90;;
22644;SDS011;11489;50.834;6.752;2023-02-18T16:23:09;1.27;;;1.00;;
22644;SDS011;11489;50.834;6.752;2023-02-18T16:25:22;2.33;;;1.00;;
22644;SDS011;11489;50.834;6.752;2023-02-18T16:30:26;1.35;;;1.25;;
22644;SDS011;11489;50.834;6.752;2023-02-18T16:32:54;1.67;;;0.98;;
22644;SDS011;11489;50.834;6.752;2023-02-18T16:35:22;1.73;;;1.25;;
22644;SDS011;11489;50.834;6.752;2023-02-18T16:37:49;2.25;;;1.27;;
22644;SDS011;11489;50.834;6.752;2023-02-18T16:42:51;1.10;;;1.00;;
22644;SDS011;11489;50.834;6.752;2023-02-18T16:45:17;2.05;;;1.23;;
22644;SDS011;11489;50.834;6.752;2023-02-18T16:47:45;1.95;;;1.08;;
22644;SDS011;11489;50.834;6.752;2023-02-18T16:50:16;1.80;;;1.20;;
22644;SDS011;11489;50.834;6.752;2023-02-18T16:52:46;2.55;;;1.30;;
22644;SDS011;11489;50.834;6.752;2023-02-18T16:57:43;1.90;;;1.60;;
22644;SDS011;11489;50.834;6.752;2023-02-18T17:00:10;1.75;;;1.25;;
22644;SDS011;11489;50.834;6.752;2023-02-18T17:02:36;1.45;;;1.23;;
22644;SDS011;11489;50.834;6.752;2023-02-18T17:05:01;1.75;;;1.65;;
22644;SDS011;11489;50.834;6.752;2023-02-18T17:07:27;1.90;;;1.38;;
22644;SDS011;11489;50.834;6.752;2023-02-18T17:09:56;1.90;;;1.15;;
22644;SDS011;11489;50.834;6.752;2023-02-18T17:12:23;2.03;;;1.48;;
22644;SDS011;11489;50.834;6.752;2023-02-18T17:14:49;3.53;;;1.23;;
22644;SDS011;11489;50.834;6.752;2023-02-18T17:17:15;1.67;;;1.48;;
22644;SDS011;11489;50.834;6.752;2023-02-18T17:19:46;2.55;;;1.27;;
22644;SDS011;11489;50.834;6.752;2023-02-18T17:22:12;2.67;;;1.20;;
22644;SDS011;11489;50.834;6.752;2023-02-18T17:24:38;1.92;;;1.30;;
22644;SDS011;11489;50.834;6.752;2023-02-18T17:27:04;2.28;;;1.50;;
22644;SDS011;11489;50.834;6.752;2023-02-18T17:29:29;1.75;;;1.50;;
22644;SDS011;11489;50.834;6.752;2023-02-18T17:31:56;1.40;;;1.30;;
22644;SDS011;11489;50.834;6.752;2023-02-18T17:34:26;1.85;;;1.27;;
22644;SDS011;11489;50.834;6.752;2023-02-18T17:36:55;1.45;;;1.17;;
22644;SDS011;11489;50.834;6.752;2023-02-18T17:39:21;1.38;;;1.27;;
22644;SDS011;11489;50.834;6.752;2023-02-18T17:41:48;1.80;;;1.30;;
22644;SDS011;11489;50.834;6.752;2023-02-18T17:44:19;1.40;;;1.27;;
22644;SDS011;11489;50.834;6.752;2023-02-18T17:46:46;2.03;;;1.50;;
22644;SDS011;11489;50.834;6.752;2023-02-18T17:49:13;3.60;;;1.40;;
22644;SDS011;11489;50.834;6.752;2023-02-18T17:51:39;2.83;;;1.60;;